Time;durP1;ratioP1;P1;durP2;ratioP2;P2;SDS_P1;SDS_P2;PMS_P1;PMS_P2;Temp;Humidity;BMP_temperature;BMP_pressure;BME280_temperature;BME280_humidity;BME280_pressure;Samples;Min_cycle;Max_cycle;Signal;HPM_P1;HPM_P2
2022/12/16 00:01:10;;;;;;;6.82;3.63;;;;;;;;;;5045204;28;20285;-85
2022/12/16 00:03:37;;;;;;;2.08;1.98;;;;;;;;;;5046366;28;20258;-85
2022/12/16 00:06:08;;;;;;;6.13;3.10;;;;;;;;;;5044629;28;20690;-84
2022/12/16 00:08:38;;;;;;;4.07;3.25;;;;;;;;;;5050253;28;20292;-84
2022/12/16 00:11:07;;;;;;;4.07;3.67;;;;;;;;;;5050611;28;20225;-83
2022/12/16 00:13:36;;;;;;;4.95;3.13;;;;;;;;;;5053258;28;20225;-84
2022/12/16 00:16:06;;;;;;;3.85;3.38;;;;;;;;;;5053088;28;20217;-85
2022/12/16 00:18:34;;;;;;;4.68;4.07;;;;;;;;;;5054606;28;20198;-85
2022/12/16 00:21:02;;;;;;;6.82;4.13;;;;;;;;;;5046527;28;20650;-84
2022/12/16 00:23:31;;;;;;;5.65;4.60;;;;;;;;;;5049842;28;20739;-84
2022/12/16 00:25:59;;;;;;;9.30;5.97;;;;;;;;;;5046820;28;20217;-85
2022/12/16 00:28:26;;;;;;;7.85;6.40;;;;;;;;;;5052865;28;20656;-83
2022/12/16 00:30:56;;;;;;;7.57;5.00;;;;;;;;;;5046704;28;20339;-85
2022/12/16 00:33:26;;;;;;;6.38;4.63;;;;;;;;;;5048153;28;20761;-85
2022/12/16 00:35:54;;;;;;;8.05;4.57;;;;;;;;;;5044768;28;20222;-84
2022/12/16 00:38:24;;;;;;;5.75;5.18;;;;;;;;;;5052688;28;20289;-85
2022/12/16 00:40:53;;;;;;;7.15;5.20;;;;;;;;;;5047383;28;20204;-84
2022/12/16 00:43:20;;;;;;;6.25;4.95;;;;;;;;;;5046551;28;20689;-84
2022/12/16 00:45:48;;;;;;;5.13;4.57;;;;;;;;;;5050515;28;20304;-84
2022/12/16 00:48:16;;;;;;;6.43;5.20;;;;;;;;;;5046732;28;20709;-85
2022/12/16 00:50:49;;;;;;;6.88;4.45;;;;;;;;;;5052263;28;20202;-84
2022/12/16 00:53:16;;;;;;;6.28;4.82;;;;;;;;;;5050560;28;20230;-83
2022/12/16 00:55:45;;;;;;;7.72;5.22;;;;;;;;;;5049705;28;20221;-84
2022/12/16 00:58:14;;;;;;;4.63;3.47;;;;;;;;;;5046910;28;20667;-85
2022/12/16 01:00:42;;;;;;;5.97;3.58;;;;;;;;;;5049596;28;20197;-84
2022/12/16 01:03:09;;;;;;;5.22;4.45;;;;;;;;;;5046726;28;20200;-85
2022/12/16 01:05:39;;;;;;;4.80;3.90;;;;;;;;;;5051569;28;20229;-84
2022/12/16 01:08:06;;;;;;;5.80;4.53;;;;;;;;;;5052069;28;20198;-85
2022/12/16 01:10:34;;;;;;;7.75;4.00;;;;;;;;;;5052104;28;20803;-83
2022/12/16 01:13:01;;;;;;;5.07;4.07;;;;;;;;;;5046299;28;20296;-84
2022/12/16 01:15:30;;;;;;;5.72;4.32;;;;;;;;;;5046919;28;20682;-85
2022/12/16 01:17:58;;;;;;;6.15;4.60;;;;;;;;;;5052652;28;20343;-85
2022/12/16 01:20:25;;;;;;;6.28;4.68;;;;;;;;;;5048258;28;20205;-85
2022/12/16 01:22:53;;;;;;;8.23;5.30;;;;;;;;;;5051488;28;20194;-85
2022/12/16 01:25:20;;;;;;;8.65;5.50;;;;;;;;;;5048457;28;20271;-85
2022/12/16 01:27:49;;;;;;;8.15;5.60;;;;;;;;;;5050811;28;20641;-85
2022/12/16 01:30:16;;;;;;;9.55;6.47;;;;;;;;;;5041751;28;20198;-85
2022/12/16 01:32:45;;;;;;;5.63;4.82;;;;;;;;;;5049404;28;20316;-84
2022/12/16 01:35:13;;;;;;;9.63;5.57;;;;;;;;;;5046554;28;20289;-85
2022/12/16 01:37:40;;;;;;;10.20;5.90;;;;;;;;;;5051010;28;20238;-85
2022/12/16 01:40:10;;;;;;;6.80;5.28;;;;;;;;;;5046910;28;20198;-85
2022/12/16 01:42:38;;;;;;;7.18;5.82;;;;;;;;;;5044954;28;20220;-84
2022/12/16 01:45:32;;;;;;;7.50;5.05;;;;;;;;;;5047142;28;20576;-85
2022/12/16 01:48:07;;;;;;;9.25;6.07;;;;;;;;;;5058228;28;20212;-85
2022/12/16 01:50:35;;;;;;;5.85;4.82;;;;;;;;;;5049009;28;20201;-85
2022/12/16 01:53:05;;;;;;;8.38;5.00;;;;;;;;;;5046790;28;20664;-85
2022/12/16 01:55:36;;;;;;;6.05;4.75;;;;;;;;;;5043266;28;20273;-84
2022/12/16 01:58:07;;;;;;;7.70;4.22;;;;;;;;;;5051467;28;20276;-85
2022/12/16 02:00:36;;;;;;;8.48;4.82;;;;;;;;;;5047957;28;20221;-84
2022/12/16 02:03:05;;;;;;;5.65;5.07;;;;;;;;;;5050711;28;20284;-84
2022/12/16 02:05:34;;;;;;;7.22;4.35;;;;;;;;;;5043836;28;20733;-85
2022/12/16 02:08:10;;;;;;;5.68;4.07;;;;;;;;;;5045022;28;20291;-84
2022/12/16 02:10:51;;;;;;;5.75;4.53;;;;;;;;;;5045727;28;20741;-85
2022/12/16 02:13:24;;;;;;;5.72;4.43;;;;;;;;;;5048927;28;20305;-84
2022/12/16 02:15:59;;;;;;;5.70;4.80;;;;;;;;;;5049639;28;20681;-85
2022/12/16 02:18:38;;;;;;;7.25;4.97;;;;;;;;;;5049454;28;20961;-84
2022/12/16 02:21:29;;;;;;;6.90;4.85;;;;;;;;;;5047608;28;20251;-83
2022/12/16 02:24:41;;;;;;;6.78;4.18;;;;;;;;;;5050087;28;20197;-84
2022/12/16 02:27:52;;;;;;;6.38;4.60;;;;;;;;;;5046454;28;20217;-85
2022/12/16 02:30:51;;;;;;;4.55;4.15;;;;;;;;;;5053460;28;20672;-85
2022/12/16 02:33:35;;;;;;;4.20;3.50;;;;;;;;;;5056473;28;20223;-84
2022/12/16 02:36:11;;;;;;;4.78;3.58;;;;;;;;;;5054529;28;20312;-85
2022/12/16 02:38:48;;;;;;;8.20;3.78;;;;;;;;;;5049455;28;20287;-84
2022/12/16 02:41:21;;;;;;;3.80;3.22;;;;;;;;;;5053335;28;20197;-84
2022/12/16 02:43:55;;;;;;;3.80;3.08;;;;;;;;;;5052468;28;20300;-85
2022/12/16 02:46:27;;;;;;;3.58;3.03;;;;;;;;;;5055586;28;20213;-85
2022/12/16 02:48:55;;;;;;;3.28;2.60;;;;;;;;;;5055927;28;20308;-84
2022/12/16 02:51:25;;;;;;;6.57;3.05;;;;;;;;;;5058216;28;20288;-85
2022/12/16 02:53:54;;;;;;;3.83;2.97;;;;;;;;;;5050171;28;20221;-85
2022/12/16 02:56:36;;;;;;;4.15;3.05;;;;;;;;;;5053365;28;20225;-84
2022/12/16 02:59:15;;;;;;;3.35;2.60;;;;;;;;;;5049300;28;20280;-85
2022/12/16 03:01:51;;;;;;;3.40;2.78;;;;;;;;;;5058040;28;20292;-85
2022/12/16 03:04:21;;;;;;;3.25;2.75;;;;;;;;;;5050668;28;20277;-85
2022/12/16 03:06:51;;;;;;;4.43;2.50;;;;;;;;;;5047663;28;20224;-85
2022/12/16 03:09:23;;;;;;;5.68;3.40;;;;;;;;;;5056993;28;20261;-84
2022/12/16 03:11:52;;;;;;;2.45;2.25;;;;;;;;;;5055448;28;20312;-84
2022/12/16 03:14:21;;;;;;;3.55;2.35;;;;;;;;;;5054121;28;20282;-84
2022/12/16 03:16:51;;;;;;;2.80;2.50;;;;;;;;;;5049191;28;20218;-84
2022/12/16 03:19:20;;;;;;;3.15;2.03;;;;;;;;;;5048747;28;20571;-85
2022/12/16 03:21:55;;;;;;;3.15;2.63;;;;;;;;;;5050927;28;20749;-84
2022/12/16 03:24:22;;;;;;;3.92;2.47;;;;;;;;;;5045257;28;20224;-85
2022/12/16 03:26:56;;;;;;;2.47;2.20;;;;;;;;;;5052328;28;20223;-84
2022/12/16 03:29:30;;;;;;;3.00;2.72;;;;;;;;;;5049767;28;20225;-85
2022/12/16 03:32:02;;;;;;;3.63;2.03;;;;;;;;;;5050018;28;20208;-85
2022/12/16 03:34:35;;;;;;;2.83;2.35;;;;;;;;;;5046823;28;20710;-84
2022/12/16 03:37:06;;;;;;;1.95;1.65;;;;;;;;;;5050024;28;20217;-85
2022/12/16 03:39:36;;;;;;;2.15;1.63;;;;;;;;;;5048429;28;20678;-84
2022/12/16 03:42:04;;;;;;;2.08;1.67;;;;;;;;;;5049817;28;20206;-84
2022/12/16 03:44:34;;;;;;;4.00;2.67;;;;;;;;;;5051652;28;20780;-85
2022/12/16 03:47:03;;;;;;;1.85;1.73;;;;;;;;;;5044507;28;20214;-84
2022/12/16 03:49:30;;;;;;;2.05;1.80;;;;;;;;;;5041175;28;20281;-84
2022/12/16 03:51:58;;;;;;;3.92;2.92;;;;;;;;;;5045012;28;20297;-84
2022/12/16 03:54:25;;;;;;;2.13;1.73;;;;;;;;;;5053132;28;20705;-83
2022/12/16 03:56:53;;;;;;;2.38;1.55;;;;;;;;;;5050245;28;20225;-85
2022/12/16 03:59:20;;;;;;;1.98;1.88;;;;;;;;;;5045929;28;20225;-85
2022/12/16 04:01:48;;;;;;;1.98;1.75;;;;;;;;;;5049866;28;21744;-84
2022/12/16 04:04:17;;;;;;;2.38;2.10;;;;;;;;;;5051986;28;20194;-84
2022/12/16 04:07:18;;;;;;;2.53;1.77;;;;;;;;;;5051144;28;20317;-85
2022/12/16 04:09:32;;;;;;;3.20;2.08;;;;;;;;;;5042197;28;20205;-84
2022/12/16 04:25:47;;;;;;;1.73;1.42;;;;;;;;;;5045971;28;20291;-84
2022/12/16 04:28:15;;;;;;;2.58;1.70;;;;;;;;;;5050344;28;20297;-84
2022/12/16 04:30:42;;;;;;;3.53;1.85;;;;;;;;;;5049165;28;20733;-84
